Time;durP1;ratioP1;P1;durP2;ratioP2;P2;SDS_P1;SDS_P2;PMS_P1;PMS_P2;Temp;Humidity;BMP_temperature;BMP_pressure;BME280_temperature;BME280_humidity;BME280_pressure;Samples;Min_cycle;Max_cycle;Signal;HPM_P1;HPM_P2
2023/01/14 00:01:47;;;;;;;10.52;2.40;;;;;;;8.34;46.53;101202.91;5068122;28;20052;-81
2023/01/14 00:04:15;;;;;;;11.60;2.50;;;;;;;8.34;47.13;101199.34;5054549;28;20055;-81
2023/01/14 00:06:42;;;;;;;12.32;2.47;;;;;;;8.33;46.59;101194.84;5064491;28;20036;-81
2023/01/14 00:09:16;;;;;;;9.95;2.33;;;;;;;8.35;47.04;101190.13;5055109;28;20148;-81
2023/01/14 00:11:48;;;;;;;14.68;3.22;;;;;;;8.32;46.57;101193.97;5051435;28;20044;-81
2023/01/14 00:14:20;;;;;;;9.63;2.75;;;;;;;8.31;46.85;101186.78;5055583;28;20049;-81
2023/01/14 00:16:55;;;;;;;8.15;2.47;;;;;;;8.30;46.97;101174.13;5059011;28;20498;-81
2023/01/14 00:19:35;;;;;;;7.90;2.42;;;;;;;8.33;46.81;101186.69;5061148;28;20094;-81
2023/01/14 00:22:23;;;;;;;8.68;2.47;;;;;;;8.33;46.70;101187.56;5053581;28;20040;-81
2023/01/14 00:24:51;;;;;;;;;;;;;;;8.05;47.44;101185.03;5048935;28;20522;-82
2023/01/14 00:27:30;;;;;;;12.38;2.70;;;;;;;8.29;46.56;101190.59;5065580;28;19982;-82
2023/01/14 00:30:04;;;;;;;8.00;2.08;;;;;;;8.31;46.76;101194.97;5048550;28;20514;-81
2023/01/14 00:32:35;;;;;;;7.75;2.22;;;;;;;8.31;46.61;101194.97;5061784;28;20066;-82
2023/01/14 00:35:03;;;;;;;8.68;2.13;;;;;;;8.29;46.99;101182.41;5070669;28;20044;-81
2023/01/14 00:37:31;;;;;;;11.18;2.25;;;;;;;8.30;46.71;101181.44;5044774;28;20037;-81
2023/01/14 00:39:59;;;;;;;11.43;2.88;;;;;;;8.28;46.90;101187.00;5066484;28;20140;-81
2023/01/14 00:42:38;;;;;;;8.88;3.35;;;;;;;8.32;47.02;101187.66;5057381;28;20044;-80
2023/01/14 00:45:09;;;;;;;9.88;2.33;;;;;;;8.29;46.63;101186.00;5054827;28;20044;-81
2023/01/14 00:47:47;;;;;;;10.02;2.97;;;;;;;8.29;46.72;101198.78;5044168;28;20140;-80
2023/01/14 00:50:22;;;;;;;9.38;2.47;;;;;;;8.29;46.57;101201.50;5033214;28;20093;-80
2023/01/14 00:53:13;;;;;;;10.52;2.50;;;;;;;8.27;46.61;101208.91;5042271;28;20040;-80
2023/01/14 00:55:44;;;;;;;9.30;2.22;;;;;;;8.26;46.53;101208.03;5045084;28;20047;-81
2023/01/14 00:58:12;;;;;;;9.77;2.45;;;;;;;8.24;46.86;101204.56;5069514;28;20072;-81
2023/01/14 01:01:03;;;;;;;10.02;3.10;;;;;;;8.26;46.70;101215.34;5051336;28;20040;-80
2023/01/14 01:03:40;;;;;;;10.70;2.45;;;;;;;8.22;46.87;101212.00;5066366;28;20041;-80
2023/01/14 01:06:22;;;;;;;8.25;2.35;;;;;;;8.25;46.57;101210.91;5028770;28;20041;-81
2023/01/14 01:09:08;;;;;;;6.68;2.17;;;;;;;8.24;46.39;101214.63;5049234;28;20049;-81
2023/01/14 01:11:40;;;;;;;11.93;2.58;;;;;;;8.21;46.84;101214.81;5037702;28;20403;-80
2023/01/14 01:14:11;;;;;;;9.10;2.50;;;;;;;8.22;46.87;101220.16;5062834;28;20113;-80
2023/01/14 01:16:42;;;;;;;8.18;2.00;;;;;;;8.20;46.56;101219.41;5047215;28;20037;-81
2023/01/14 01:19:10;;;;;;;9.13;2.10;;;;;;;8.20;46.85;101216.66;5044953;28;20045;-80
2023/01/14 01:21:47;;;;;;;9.05;1.85;;;;;;;8.18;47.10;101215.91;5066973;28;20072;-81
2023/01/14 01:24:28;;;;;;;10.95;2.80;;;;;;;8.16;46.84;101215.16;5065793;28;20063;-83
2023/01/14 01:26:57;;;;;;;7.38;2.00;;;;;;;8.17;47.04;101216.03;5075024;28;20484;-82
2023/01/14 01:29:56;;;;;;;8.13;2.97;;;;;;;8.15;47.00;101209.81;5047953;28;20399;-81
2023/01/14 01:32:43;;;;;;;8.95;2.38;;;;;;;8.17;46.91;101221.50;5055822;28;20449;-80
2023/01/14 01:35:25;;;;;;;11.18;2.65;;;;;;;8.15;46.56;101216.16;5051686;28;20094;-81
2023/01/14 01:38:10;;;;;;;8.32;2.08;;;;;;;8.15;46.58;101228.91;5043770;28;20060;-81
2023/01/14 01:40:38;;;;;;;7.60;2.50;;;;;;;8.12;46.86;101223.63;5035622;28;20044;-81
2023/01/14 01:43:19;;;;;;;9.82;2.58;;;;;;;8.15;46.49;101234.34;5051099;28;20048;-80
2023/01/14 01:45:49;;;;;;;7.32;1.83;;;;;;;8.12;46.33;101240.84;5063134;28;20037;-81
2023/01/14 01:48:40;;;;;;;8.35;2.03;;;;;;;8.11;46.95;101236.38;5046298;28;20144;-83
2023/01/14 01:51:23;;;;;;;7.63;2.20;;;;;;;8.09;46.69;101232.91;5039480;28;20175;-82
2023/01/14 01:53:56;;;;;;;7.85;2.25;;;;;;;8.09;46.79;101234.75;5056125;28;20524;-82
2023/01/14 01:56:42;;;;;;;9.20;2.50;;;;;;;8.08;47.12;101231.16;5057535;28;20505;-82
2023/01/14 02:03:00;;;;;;;8.15;1.95;;;;;;;8.06;47.06;101224.94;5055665;28;20490;-81
2023/01/14 02:05:30;;;;;;;10.05;1.88;;;;;;;8.06;47.32;101232.25;5031081;28;20529;-83
2023/01/14 02:08:01;;;;;;;9.45;2.25;;;;;;;8.05;47.38;101228.66;5039863;28;20041;-83
2023/01/14 02:11:00;;;;;;;7.88;2.22;;;;;;;8.10;47.04;101229.19;5064288;28;20064;-84
2023/01/14 02:14:10;;;;;;;7.82;2.03;;;;;;;8.10;47.27;101222.84;5062209;28;20051;-83
2023/01/14 02:17:05;;;;;;;8.27;1.90;;;;;;;8.09;47.33;101215.69;5048190;28;20395;-84
2023/01/14 02:20:24;;;;;;;8.20;2.35;;;;;;;8.07;47.32;101209.47;5041974;28;20071;-83
2023/01/14 02:23:24;;;;;;;12.32;2.20;;;;;;;8.07;47.47;101213.06;5074152;28;20040;-82
2023/01/14 02:26:50;;;;;;;10.35;2.35;;;;;;;8.04;47.13;101218.72;5051444;28;20037;-82
2023/01/14 02:30:04;;;;;;;11.55;2.75;;;;;;;8.02;47.15;101215.22;4938427;28;20043;-83
2023/01/14 02:32:56;;;;;;;8.98;2.28;;;;;;;8.07;47.04;101215.78;5071624;28;20063;-82
2023/01/14 02:35:36;;;;;;;8.18;2.22;;;;;;;8.08;46.93;101209.34;5073269;28;20048;-84
2023/01/14 02:38:17;;;;;;;9.65;2.33;;;;;;;8.08;46.93;101216.66;5063603;28;20049;-84
2023/01/14 02:40:52;;;;;;;11.60;2.55;;;;;;;8.07;46.98;101213.06;5047687;28;20055;-83
2023/01/14 02:46:24;;;;;;;9.20;2.00;;;;;;;8.04;47.04;101206.94;5050941;28;20406;-84
2023/01/14 02:49:21;;;;;;;12.35;2.15;;;;;;;8.05;46.81;101204.13;5053869;28;20063;-83
2023/01/14 02:52:25;;;;;;;11.07;2.17;;;;;;;8.03;46.65;101205.19;5064505;28;20510;-85
2023/01/14 02:54:58;;;;;;;10.85;2.42;;;;;;;8.04;46.83;101201.50;5056138;28;20053;-83
2023/01/14 02:58:10;;;;;;;12.38;2.67;;;;;;;8.03;46.81;101197.03;5055668;28;20048;-84
2023/01/14 03:01:23;;;;;;;7.60;1.95;;;;;;;8.00;46.97;101184.50;5049117;28;20052;-84
2023/01/14 03:04:18;;;;;;;7.38;2.97;;;;;;;8.03;47.08;101173.34;5051609;28;20468;-83
2023/01/14 03:06:58;;;;;;;7.68;2.10;;;;;;;8.04;47.05;101166.94;5066306;28;20051;-84
2023/01/14 03:09:37;;;;;;;9.15;1.90;;;;;;;8.06;46.94;101164.09;5059158;28;20124;-84
2023/01/14 03:12:18;;;;;;;10.60;2.42;;;;;;;8.06;46.92;101151.34;5060804;28;20129;-84
2023/01/14 03:14:58;;;;;;;11.73;2.45;;;;;;;8.07;46.92;101142.19;5067415;28;20123;-85
2023/01/14 03:17:32;;;;;;;10.23;3.08;;;;;;;8.07;47.32;101139.47;5052294;28;20049;-84
2023/01/14 03:20:05;;;;;;;12.40;2.42;;;;;;;8.08;46.96;101132.16;5053293;28;20037;-84
2023/01/14 03:22:34;;;;;;;11.32;2.60;;;;;;;8.07;47.46;101127.69;5055648;28;20052;-84
2023/01/14 03:25:04;;;;;;;6.88;2.22;;;;;;;8.07;47.04;101131.28;5056008;28;20045;-84
2023/01/14 03:27:36;;;;;;;12.32;2.38;;;;;;;8.08;46.98;101137.59;5054936;28;20462;-84
2023/01/14 03:30:09;;;;;;;10.00;2.15;;;;;;;8.07;46.99;101139.47;5057599;28;20506;-82
2023/01/14 03:32:41;;;;;;;10.93;2.30;;;;;;;8.07;46.79;101142.19;5063353;28;20152;-84
2023/01/14 03:35:14;;;;;;;10.65;2.70;;;;;;;8.07;46.85;101141.31;5065349;28;20355;-82
2023/01/14 03:37:49;;;;;;;7.05;1.70;;;;;;;8.05;47.00;101127.78;5073959;28;20044;-83
2023/01/14 03:40:21;;;;;;;9.30;1.90;;;;;;;8.07;47.26;101139.47;5052066;28;20048;-83
2023/01/14 03:42:54;;;;;;;8.45;2.00;;;;;;;8.08;47.17;101137.59;5067862;28;20045;-83
2023/01/14 03:45:23;;;;;;;;;;;;;;;7.81;47.78;101129.56;5061343;28;20253;-83
2023/01/14 03:47:53;;;;;;;5.88;1.92;;;;;;;8.01;47.32;101128.13;5066261;28;19920;-83
2023/01/14 03:50:30;;;;;;;12.93;3.17;;;;;;;8.06;47.15;101132.25;5058330;28;20284;-82
2023/01/14 03:53:10;;;;;;;8.95;1.80;;;;;;;8.07;47.30;101120.38;5065395;28;20043;-82
2023/01/14 03:55:49;;;;;;;5.95;1.67;;;;;;;8.06;47.41;101113.19;5063956;28;20045;-82
2023/01/14 03:58:31;;;;;;;6.57;2.03;;;;;;;8.05;47.41;101122.34;5068229;28;20044;-82
2023/01/14 04:01:07;;;;;;;9.10;2.30;;;;;;;8.03;47.50;101121.56;5069740;28;20047;-83
2023/01/14 04:03:36;;;;;;;6.68;1.80;;;;;;;8.03;47.29;101120.69;5049414;28;20036;-82
2023/01/14 04:06:08;;;;;;;7.75;2.05;;;;;;;8.04;47.16;101117.88;5068726;28;20477;-83
2023/01/14 04:08:36;;;;;;;8.48;2.00;;;;;;;8.02;47.05;101113.50;5058110;28;20501;-83
2023/01/14 04:11:05;;;;;;;7.07;2.08;;;;;;;8.02;47.35;101102.59;5058339;28;20052;-81
2023/01/14 04:16:21;;;;;;;10.07;2.33;;;;;;;8.00;47.24;101089.09;5059215;28;20044;-81
2023/01/14 04:18:49;;;;;;;6.60;1.60;;;;;;;8.00;47.11;101097.28;5058077;28;20618;-82
2023/01/14 04:21:18;;;;;;;9.15;2.15;;;;;;;8.00;47.43;101091.84;5065244;28;20079;-83
2023/01/14 04:23:46;;;;;;;5.32;1.65;;;;;;;7.99;47.27;101090.09;5059943;28;20411;-82
2023/01/14 04:26:14;;;;;;;7.47;1.67;;;;;;;7.99;47.34;101081.03;5054193;28;20071;-82
2023/01/14 04:28:42;;;;;;;8.25;2.20;;;;;;;7.99;47.26;101072.84;5070732;28;20036;-80
2023/01/14 04:31:10;;;;;;;7.57;2.65;;;;;;;7.98;47.34;101068.38;5053566;28;20473;-81
2023/01/14 04:33:38;;;;;;;7.25;2.00;;;;;;;7.98;47.26;101068.38;5061707;28;20036;-81
2023/01/14 04:36:07;;;;;;;7.45;1.80;;;;;;;7.96;47.21;101071.22;5040321;28;20153;-82
2023/01/14 04:38:36;;;;;;;9.18;2.30;;;;;;;7.97;47.03;101051.16;5034807;28;20059;-82
2023/01/14 04:41:04;;;;;;;6.47;2.70;;;;;;;7.95;47.23;101050.41;5056832;28;20040;-82
2023/01/14 04:43:31;;;;;;;7.32;1.70;;;;;;;7.94;47.49;101052.25;5047094;28;20044;-81
2023/01/14 04:46:00;;;;;;;7.32;1.70;;;;;;;7.94;47.37;101052.25;5068953;28;20642;-82
2023/01/14 04:48:37;;;;;;;9.15;1.80;;;;;;;7.93;47.15;101045.06;5060092;28;20044;-83
2023/01/14 04:51:18;;;;;;;8.40;2.38;;;;;;;7.91;47.11;101033.41;5032928;28;20252;-81
2023/01/14 04:53:48;;;;;;;6.05;1.83;;;;;;;7.93;46.66;101027.84;5044937;28;20055;-80
2023/01/14 04:56:16;;;;;;;8.38;2.10;;;;;;;7.91;47.11;101027.09;5054041;28;20049;-81
2023/01/14 04:58:44;;;;;;;8.82;1.80;;;;;;;7.90;46.90;101019.91;5070592;28;20037;-82
2023/01/14 05:01:34;;;;;;;7.38;2.03;;;;;;;7.92;46.52;101018.81;5049015;28;20047;-81
2023/01/14 05:04:02;;;;;;;8.27;2.00;;;;;;;7.88;46.81;101008.25;5063821;28;20055;-81
2023/01/14 05:06:31;;;;;;;6.32;1.40;;;;;;;7.89;47.13;101007.25;5055163;28;20135;-80
2023/01/14 05:09:00;;;;;;;7.10;1.90;;;;;;;7.89;47.13;100999.94;5070895;28;20036;-82
2023/01/14 05:11:28;;;;;;;8.50;1.67;;;;;;;7.87;46.90;101003.75;5062386;28;20115;-81
2023/01/14 05:13:56;;;;;;;6.28;1.73;;;;;;;7.87;46.83;101001.03;5049956;28;20056;-81
2023/01/14 05:19:08;;;;;;;8.68;2.10;;;;;;;7.85;47.01;100982.06;5041704;28;20040;-81
2023/01/14 05:21:36;;;;;;;5.60;1.45;;;;;;;7.85;47.00;100994.81;5053530;28;20043;-80
2023/01/14 05:24:12;;;;;;;6.05;1.60;;;;;;;7.88;46.34;100989.16;5046757;28;20132;-81
2023/01/14 05:26:56;;;;;;;;;;;;;;;;;;;;;
2023/01/14 05:29:33;;;;;;;7.20;1.77;;;;;;;7.84;47.09;100982.22;5054114;28;20048;-81
2023/01/14 05:32:01;;;;;;;8.50;1.83;;;;;;;7.84;46.46;100974.91;5059981;28;20084;-82
2023/01/14 05:34:30;;;;;;;6.90;1.60;;;;;;;7.83;46.65;100967.72;5050848;28;20064;-81
2023/01/14 05:36:58;;;;;;;6.47;1.80;;;;;;;7.83;46.88;100975.91;5051073;28;20040;-81
2023/01/14 05:39:27;;;;;;;8.15;2.13;;;;;;;7.84;46.78;100961.28;5049446;28;20068;-81
2023/01/14 05:47:37;;;;;;;5.85;1.67;;;;;;;7.79;46.48;100940.81;5055863;28;20131;-82
2023/01/14 05:50:21;;;;;;;7.82;2.00;;;;;;;7.76;46.49;100944.66;5057751;28;20045;-81
2023/01/14 05:52:52;;;;;;;6.28;1.80;;;;;;;7.77;46.54;100938.19;5050546;28;20033;-82
2023/01/14 05:55:23;;;;;;;6.20;1.50;;;;;;;7.79;46.27;100929.91;5051467;28;20045;-81
2023/01/14 05:57:52;;;;;;;6.82;1.85;;;;;;;7.77;46.64;100929.13;5048692;28;20072;-81
2023/01/14 06:08:46;;;;;;;8.05;2.08;;;;;;;7.71;46.25;100908.69;5049710;28;20483;-82
2023/01/14 06:11:17;;;;;;;10.10;2.55;;;;;;;7.74;46.44;100904.88;5047582;28;20044;-82
2023/01/14 06:13:45;;;;;;;9.48;1.95;;;;;;;7.72;46.70;100898.66;5047782;28;20048;-82
2023/01/14 06:16:13;;;;;;;6.53;1.85;;;;;;;7.72;46.23;100895.94;5055210;28;20040;-82
2023/01/14 06:18:42;;;;;;;4.53;1.55;;;;;;;7.73;46.31;100884.06;5069386;28;20402;-82
2023/01/14 06:21:12;;;;;;;5.68;1.50;;;;;;;7.74;46.63;100883.06;5053273;28;20044;-82
2023/01/14 06:23:40;;;;;;;7.57;2.10;;;;;;;7.73;46.78;100876.75;5048481;28;20049;-82
2023/01/14 06:26:13;;;;;;;5.03;1.50;;;;;;;7.74;46.48;100870.31;5049264;28;20125;-84
2023/01/14 06:28:42;;;;;;;6.30;2.00;;;;;;;7.72;46.52;100860.53;5056348;28;20441;-83
2023/01/14 06:31:12;;;;;;;5.57;1.58;;;;;;;7.74;46.24;100851.25;5056833;28;20090;-81
2023/01/14 06:33:40;;;;;;;5.85;1.90;;;;;;;7.74;46.23;100853.97;5056067;28;20415;-81
2023/01/14 06:36:10;;;;;;;4.95;1.73;;;;;;;7.74;46.21;100848.53;5058448;28;20045;-82
2023/01/14 06:38:40;;;;;;;7.55;1.77;;;;;;;7.75;46.51;100852.13;5061755;28;20439;-81
2023/01/14 06:41:09;;;;;;;7.03;1.85;;;;;;;7.74;46.43;100851.25;5056924;28;20515;-81
2023/01/14 06:43:40;;;;;;;5.93;1.73;;;;;;;7.74;46.21;100839.50;5053119;28;20071;-82
2023/01/14 06:46:10;;;;;;;5.75;2.08;;;;;;;7.75;46.16;100827.59;5054630;28;20044;-84
2023/01/14 06:48:45;;;;;;;5.53;1.80;;;;;;;7.76;46.42;100837.53;5073189;28;20127;-82
2023/01/14 06:51:26;;;;;;;5.50;1.80;;;;;;;7.74;46.19;100826.75;5055806;28;20048;-81
2023/01/14 06:54:08;;;;;;;5.90;1.65;;;;;;;7.73;46.44;100824.13;5033638;28;20057;-83
2023/01/14 06:56:36;;;;;;;6.15;1.70;;;;;;;7.74;46.62;100814.97;5041880;28;20044;-82
2023/01/14 06:59:07;;;;;;;6.50;1.60;;;;;;;7.75;46.12;100806.69;5071147;28;20040;-82
2023/01/14 07:01:36;;;;;;;5.95;1.95;;;;;;;7.75;46.68;100803.09;5057647;28;20480;-82
2023/01/14 07:04:07;;;;;;;5.63;1.73;;;;;;;7.76;46.75;100793.94;5055292;28;20063;-82
2023/01/14 07:06:35;;;;;;;6.50;2.08;;;;;;;7.73;46.77;100795.03;5071551;28;20059;-81
2023/01/14 07:09:03;;;;;;;4.20;1.75;;;;;;;7.75;46.70;100786.75;5055022;28;20045;-82
2023/01/14 07:11:32;;;;;;;5.43;1.50;;;;;;;7.74;46.76;100783.16;5050019;28;20043;-83
2023/01/14 07:14:00;;;;;;;7.80;1.75;;;;;;;7.74;46.77;100769.53;5069890;28;20037;-83
2023/01/14 07:16:28;;;;;;;6.07;1.73;;;;;;;7.73;47.07;100765.06;5049581;28;20065;-83
2023/01/14 07:18:57;;;;;;;6.30;1.50;;;;;;;7.75;46.97;100775.84;5083370;28;20048;-82
2023/01/14 07:21:25;;;;;;;5.20;1.65;;;;;;;7.72;47.06;100770.63;5053368;28;20045;-82
2023/01/14 07:23:53;;;;;;;5.22;1.85;;;;;;;7.73;47.05;100753.28;5052712;28;20492;-82
2023/01/14 07:26:29;;;;;;;6.25;1.63;;;;;;;7.74;47.20;100753.19;5042033;28;20071;-81
2023/01/14 07:30:29;;;;;;;6.80;1.90;;;;;;;7.68;47.46;100742.78;4968155;28;20043;-81
2023/01/14 07:33:06;;;;;;;5.97;1.60;;;;;;;7.68;47.60;100737.31;4965973;28;20198;-83
2023/01/14 07:35:53;;;;;;;6.45;1.70;;;;;;;7.72;47.46;100722.47;5064212;28;20044;-83
2023/01/14 07:43:10;;;;;;;5.18;1.60;;;;;;;7.60;47.43;100707.06;5069686;28;20055;-85
2023/01/14 07:46:00;;;;;;;6.13;1.60;;;;;;;7.61;47.42;100699.75;5038337;28;20037;-84
2023/01/14 07:48:48;;;;;;;5.22;1.63;;;;;;;7.62;47.83;100690.59;5037774;28;20045;-84
2023/01/14 07:51:31;;;;;;;6.10;1.48;;;;;;;7.62;48.05;100687.88;5059260;28;20520;-83
2023/01/14 08:03:27;;;;;;;7.25;1.52;;;;;;;7.50;48.99;100662.50;4923304;29;20107;-85
2023/01/14 08:19:27;;;;;;;;;;;;;;;7.14;49.43;100648.00;4875218;29;20060;-84
2023/01/14 08:22:23;;;;;;;4.25;1.25;;;;;;;7.34;48.80;100630.13;4990213;28;20357;-84
2023/01/14 08:24:51;;;;;;;7.35;1.88;;;;;;;7.40;48.77;100623.34;5045758;28;20064;-84
2023/01/14 08:27:19;;;;;;;6.93;1.98;;;;;;;7.40;48.98;100618.75;5046683;28;20067;-84
2023/01/14 08:29:46;;;;;;;7.57;1.65;;;;;;;7.42;48.62;100605.03;5044738;28;20102;-85
2023/01/14 08:32:15;;;;;;;4.72;1.80;;;;;;;7.43;48.80;100613.09;5052857;28;20098;-85
2023/01/14 08:34:43;;;;;;;6.40;1.75;;;;;;;7.44;48.73;100616.66;5049002;28;20103;-85
2023/01/14 08:37:11;;;;;;;7.25;1.92;;;;;;;7.45;48.84;100588.44;5053783;28;20040;-85
2023/01/14 08:39:40;;;;;;;5.75;1.60;;;;;;;7.47;48.81;100602.81;5052203;28;20040;-85
2023/01/14 08:42:08;;;;;;;5.60;1.80;;;;;;;7.45;48.87;100596.59;5056814;28;20048;-85
2023/01/14 08:44:36;;;;;;;7.97;1.80;;;;;;;7.46;49.04;100592.91;5049758;28;20056;-84
2023/01/14 08:47:04;;;;;;;6.85;1.90;;;;;;;7.46;49.10;100579.28;5048919;28;20044;-84
2023/01/14 08:54:57;;;;;;;5.63;2.03;;;;;;;7.35;50.12;100550.22;4977515;28;20609;-85
2023/01/14 09:24:29;;;;;;;5.13;1.90;;;;;;;7.37;49.21;100463.81;4855582;29;20134;-84
2023/01/14 09:26:57;;;;;;;7.15;1.50;;;;;;;7.41;49.51;100459.00;4871789;29;20132;-84
2023/01/14 09:29:24;;;;;;;6.57;2.08;;;;;;;7.42;49.56;100441.69;5041265;28;20116;-84
2023/01/14 09:31:52;;;;;;;6.00;1.75;;;;;;;7.44;49.30;100439.69;5042467;28;20112;-85
2023/01/14 09:34:20;;;;;;;5.72;1.50;;;;;;;7.45;49.59;100436.84;5066653;28;20055;-84
2023/01/14 09:36:49;;;;;;;4.93;1.65;;;;;;;7.45;49.43;100436.84;5044562;28;20444;-84
2023/01/14 09:39:17;;;;;;;5.25;1.52;;;;;;;7.48;49.49;100435.72;5051038;28;20049;-84
2023/01/14 09:41:52;;;;;;;6.70;1.60;;;;;;;7.52;50.03;100426.31;5040930;28;20212;-84
2023/01/14 09:44:21;;;;;;;3.83;1.60;;;;;;;7.51;49.89;100422.75;5041678;28;20068;-84
2023/01/14 09:46:49;;;;;;;5.65;1.50;;;;;;;7.53;49.61;100422.59;5039288;28;20046;-84
2023/01/14 09:49:20;;;;;;;4.53;1.60;;;;;;;7.55;49.71;100413.31;5040342;28;20049;-84
2023/01/14 09:56:26;;;;;;;4.88;1.20;;;;;;;7.55;50.25;100385.22;5013284;28;20049;-85
2023/01/14 10:07:46;;;;;;;3.45;1.00;;;;;;;7.60;50.41;100347.56;5029114;28;20041;-85
2023/01/14 10:14:13;;;;;;;2.47;0.80;;;;;;;7.67;50.01;100326.16;5035217;28;20048;-83
2023/01/14 10:16:51;;;;;;;2.30;1.00;;;;;;;7.71;50.02;100319.44;5042276;28;20083;-82
2023/01/14 10:19:35;;;;;;;0.98;0.50;;;;;;;7.74;49.95;100314.59;5018885;28;20171;-82
2023/01/14 10:22:10;;;;;;;2.20;0.70;;;;;;;7.76;49.95;100319.94;5041548;28;20064;-82
2023/01/14 10:24:42;;;;;;;2.35;0.68;;;;;;;7.78;50.30;100301.56;5046699;28;20518;-82
2023/01/14 10:27:15;;;;;;;2.50;0.80;;;;;;;7.81;50.29;100299.47;5048653;28;20032;-82
2023/01/14 10:29:45;;;;;;;1.85;1.17;;;;;;;7.78;49.79;100287.97;5039339;28;20057;-84
2023/01/14 10:32:15;;;;;;;2.08;0.77;;;;;;;7.80;49.90;100299.59;5042369;28;20528;-83
2023/01/14 10:34:46;;;;;;;2.42;0.85;;;;;;;7.81;50.20;100271.38;5044087;28;20041;-82
2023/01/14 10:37:21;;;;;;;2.90;0.70;;;;;;;7.80;50.49;100284.13;5050019;28;20060;-84
2023/01/14 10:40:02;;;;;;;1.67;0.52;;;;;;;7.79;51.19;100255.16;5041907;28;20048;-83
2023/01/14 10:42:46;;;;;;;2.50;1.08;;;;;;;7.78;50.91;100244.38;5061366;28;20037;-83
2023/01/14 10:49:06;;;;;;;2.60;0.75;;;;;;;7.71;51.38;100222.25;5034887;28;20290;-82
2023/01/14 10:51:47;;;;;;;1.17;0.70;;;;;;;7.71;51.77;100235.00;5018509;28;20045;-82
2023/01/14 11:14:28;;;;;;;2.10;0.80;;;;;;;7.48;52.85;100182.50;4963432;28;20090;-82
2023/01/14 11:33:21;;;;;;;3.33;1.00;;;;;;;7.40;53.65;100127.84;5055032;28;20044;-73
2023/01/14 11:36:10;;;;;;;2.35;1.00;;;;;;;7.42;52.41;100115.00;5059864;28;20056;-73
2023/01/14 11:38:45;;;;;;;4.93;2.55;;;;;;;7.48;53.80;100106.28;5055655;28;20045;-73
2023/01/14 11:41:34;;;;;;;6.63;3.20;;;;;;;7.47;54.03;100101.81;5061342;28;20072;-74
2023/01/14 11:44:04;;;;;;;7.30;3.72;;;;;;;7.48;52.68;100087.22;5059270;28;20039;-74
2023/01/14 11:46:34;;;;;;;10.80;5.85;;;;;;;7.49;52.90;100078.94;5065654;28;20091;-72
2023/01/14 11:49:16;;;;;;;5.72;3.42;;;;;;;7.53;53.73;100064.03;5050332;28;20037;-73
2023/01/14 11:51:58;;;;;;;8.50;3.00;;;;;;;7.54;53.90;100059.44;5066810;28;20476;-74
2023/01/14 11:54:32;;;;;;;8.50;3.92;;;;;;;7.55;53.69;100059.31;5062063;28;20040;-74
2023/01/14 11:57:00;;;;;;;14.20;6.90;;;;;;;7.56;53.18;100038.41;5072769;28;20163;-74
2023/01/14 11:59:32;;;;;;;12.05;6.53;;;;;;;7.58;53.36;100042.72;5067398;28;20044;-73
2023/01/14 12:02:04;;;;;;;15.25;7.30;;;;;;;7.60;53.35;100031.66;5064058;28;20052;-74
2023/01/14 12:04:40;;;;;;;13.07;6.30;;;;;;;7.62;53.68;100029.69;5061804;28;20124;-73
2023/01/14 12:07:12;;;;;;;11.48;6.25;;;;;;;7.63;53.26;100025.09;5065764;28;20040;-73
2023/01/14 12:09:47;;;;;;;15.85;9.15;;;;;;;7.63;53.77;100023.25;5068929;28;20044;-73
2023/01/14 12:12:19;;;;;;;16.15;10.52;;;;;;;7.65;53.90;100013.09;5041918;28;20045;-74
2023/01/14 12:17:40;;;;;;;7.60;4.05;;;;;;;7.62;54.17;99986.13;5065499;28;19977;-73
2023/01/14 12:20:13;;;;;;;7.03;4.73;;;;;;;7.66;53.94;99987.59;5065837;28;20566;-74
2023/01/14 12:22:49;;;;;;;4.63;2.83;;;;;;;7.69;54.07;99970.94;5059609;28;20119;-74
2023/01/14 12:25:20;;;;;;;3.67;2.03;;;;;;;7.70;53.99;99972.66;5052167;28;20048;-73
2023/01/14 12:28:00;;;;;;;4.32;2.17;;;;;;;7.71;54.90;99957.19;5042198;28;20477;-73
2023/01/14 12:30:49;;;;;;;3.22;1.60;;;;;;;7.73;55.10;99956.06;5064359;28;20102;-73
2023/01/14 12:33:25;;;;;;;1.77;1.20;;;;;;;7.73;54.67;99958.78;5052574;28;20444;-73
2023/01/14 12:36:00;;;;;;;2.80;1.00;;;;;;;7.75;54.40;99956.81;5061691;28;20568;-73
2023/01/14 12:47:14;;;;;;;3.83;1.10;;;;;;;7.79;54.13;99920.09;5055008;28;20091;-74
2023/01/14 12:49:43;;;;;;;2.15;1.00;;;;;;;7.83;54.06;99907.06;5065527;28;20052;-73
2023/01/14 12:52:22;;;;;;;1.65;0.90;;;;;;;7.85;54.31;99907.78;5046691;28;20164;-73
2023/01/14 12:54:51;;;;;;;1.67;1.00;;;;;;;7.86;54.60;99894.00;5059154;28;20102;-73
2023/01/14 12:57:22;;;;;;;2.08;0.88;;;;;;;7.90;54.82;99895.47;5076383;28;20055;-73
2023/01/14 12:59:55;;;;;;;1.77;0.68;;;;;;;7.91;54.98;99889.03;5059870;28;20072;-73
2023/01/14 13:02:32;;;;;;;1.58;0.75;;;;;;;7.94;55.09;99883.28;5063733;28;20053;-73
2023/01/14 13:05:06;;;;;;;1.35;0.63;;;;;;;7.95;54.78;99878.69;5064418;28;20102;-73
2023/01/14 13:07:39;;;;;;;1.08;0.70;;;;;;;7.96;54.71;99891.31;5053991;28;20037;-73
2023/01/14 13:10:10;;;;;;;1.48;0.65;;;;;;;7.98;54.63;99881.13;5067575;28;20049;-73
2023/01/14 13:12:39;;;;;;;1.65;0.70;;;;;;;7.99;54.53;99871.97;5054980;28;20123;-73
2023/01/14 13:15:22;;;;;;;2.33;1.23;;;;;;;8.00;54.54;99857.34;5054603;28;20060;-73
2023/01/14 13:17:54;;;;;;;2.47;1.27;;;;;;;7.99;54.98;99844.72;5068129;28;20401;-73
2023/01/14 13:20:49;;;;;;;1.88;1.27;;;;;;;8.00;55.73;99841.00;5046218;28;20068;-73
2023/01/14 13:23:53;;;;;;;1.75;0.85;;;;;;;8.02;55.60;99843.56;5058859;28;20051;-73
2023/01/14 13:27:00;;;;;;;0.98;0.75;;;;;;;8.00;55.99;99821.06;5050615;28;20078;-73
2023/01/14 13:29:30;;;;;;;1.08;0.68;;;;;;;8.01;55.06;99804.56;5063600;28;20099;-74
2023/01/14 13:31:59;;;;;;;2.15;0.80;;;;;;;8.05;54.71;99810.59;5054143;28;20040;-73
2023/01/14 13:34:38;;;;;;;1.73;0.80;;;;;;;8.09;56.11;99801.13;5066280;28;20576;-75
2023/01/14 13:37:43;;;;;;;1.55;0.75;;;;;;;8.05;55.85;99795.09;5062769;28;20098;-74
2023/01/14 13:40:22;;;;;;;1.73;0.82;;;;;;;8.08;56.06;99786.63;5066097;28;20049;-73
2023/01/14 13:43:01;;;;;;;1.33;0.80;;;;;;;8.10;55.81;99790.06;5039536;28;20048;-73
2023/01/14 13:45:30;;;;;;;1.95;0.80;;;;;;;8.10;55.11;99783.75;5051055;28;20051;-73
2023/01/14 13:48:00;;;;;;;1.02;0.73;;;;;;;8.12;55.09;99773.56;5061185;28;20032;-73
2023/01/14 13:50:32;;;;;;;2.25;1.30;;;;;;;8.13;55.18;99772.56;5054164;28;20050;-74
2023/01/14 13:53:04;;;;;;;3.05;1.30;;;;;;;8.15;55.17;99759.69;5039226;28;20565;-74
2023/01/14 13:55:35;;;;;;;2.28;1.50;;;;;;;8.14;55.20;99741.63;5062534;28;20501;-74
2023/01/14 13:58:17;;;;;;;2.35;1.40;;;;;;;8.16;55.65;99748.66;5056800;28;20436;-74
2023/01/14 14:00:46;;;;;;;2.55;1.73;;;;;;;8.15;54.98;99738.75;5060367;28;20040;-74
2023/01/14 14:03:37;;;;;;;2.35;1.50;;;;;;;8.18;56.16;99732.13;5048302;28;20045;-74
2023/01/14 14:06:37;;;;;;;1.70;1.10;;;;;;;8.18;56.39;99733.00;5050782;28;20044;-74
2023/01/14 14:09:09;;;;;;;1.27;0.80;;;;;;;8.18;55.19;99726.69;5037896;28;20055;-74
2023/01/14 14:11:53;;;;;;;1.27;0.80;;;;;;;8.21;56.18;99721.81;5057943;28;20119;-74
2023/01/14 14:14:26;;;;;;;2.55;1.05;;;;;;;8.22;55.88;99731.72;5064148;28;20083;-75
2023/01/14 14:16:58;;;;;;;1.95;0.80;;;;;;;8.22;55.27;99709.91;5071010;28;20066;-74
2023/01/14 14:19:32;;;;;;;1.80;0.90;;;;;;;8.24;55.27;99713.34;5054171;28;20602;-74
2023/01/14 14:22:14;;;;;;;2.00;0.90;;;;;;;8.24;55.85;99707.91;5040296;28;20132;-74
2023/01/14 14:24:49;;;;;;;1.70;0.90;;;;;;;8.26;55.65;99700.41;5034811;28;20504;-74
2023/01/14 14:27:22;;;;;;;3.22;1.40;;;;;;;8.27;55.67;99699.41;5058924;28;20123;-74
2023/01/14 14:29:51;;;;;;;;;;;;;;;8.03;56.87;99690.81;5056546;28;20056;-74
2023/01/14 14:32:25;;;;;;;3.22;1.33;;;;;;;8.24;55.85;99694.28;5064273;28;19920;-74
2023/01/14 14:35:06;;;;;;;2.88;1.30;;;;;;;8.30;56.57;99679.19;5061728;28;20057;-74
2023/01/14 14:37:36;;;;;;;6.53;3.55;;;;;;;8.31;55.84;99684.50;5059346;28;20036;-74
2023/01/14 14:40:06;;;;;;;5.13;2.80;;;;;;;8.33;55.64;99673.44;5063157;28;20047;-74
2023/01/14 14:42:40;;;;;;;3.03;1.80;;;;;;;8.35;55.62;99671.41;5041491;28;20064;-74
2023/01/14 14:45:26;;;;;;;4.75;2.90;;;;;;;8.37;56.54;99669.38;5053480;28;20526;-75
2023/01/14 14:47:54;;;;;;;2.45;1.65;;;;;;;8.36;55.90;99664.09;5052298;28;20552;-72
2023/01/14 14:50:29;;;;;;;2.92;1.55;;;;;;;8.41;56.39;99670.81;5062305;28;20044;-72
2023/01/14 14:52:57;;;;;;;2.63;1.48;;;;;;;8.41;55.93;99649.00;5032631;28;20120;-72